createdAt,value
2023-01-25T00:00:42.647Z,21.00
2023-01-25T00:01:42.629Z,20.20
2023-01-25T00:02:42.645Z,20.80
2023-01-25T00:03:42.622Z,20.60
2023-01-25T00:04:42.621Z,22.10
2023-01-25T00:05:42.585Z,22.50
2023-01-25T00:06:42.599Z,21.60
2023-01-25T00:07:42.587Z,20.50
2023-01-25T00:08:42.603Z,20.60
2023-01-25T00:09:42.551Z,20.20
2023-01-25T00:10:42.524Z,20.60
2023-01-25T00:11:42.543Z,20.00
2023-01-25T00:12:42.515Z,20.10
2023-01-25T00:13:42.498Z,20.30
2023-01-25T00:14:42.516Z,20.80
2023-01-25T00:15:42.490Z,20.70
2023-01-25T00:16:42.487Z,20.30
2023-01-25T00:17:42.452Z,20.90
2023-01-25T00:18:42.435Z,21.00
2023-01-25T00:19:42.470Z,21.80
2023-01-25T00:20:42.420Z,20.70
2023-01-25T00:21:42.433Z,20.50
2023-01-25T00:22:42.394Z,20.40
2023-01-25T00:23:42.382Z,20.80
2023-01-25T00:24:42.391Z,20.70
2023-01-25T00:25:42.393Z,19.50
2023-01-25T00:26:42.384Z,20.60
2023-01-25T00:27:42.365Z,20.50
2023-01-25T00:28:42.329Z,20.70
2023-01-25T00:29:42.311Z,19.90
2023-01-25T00:30:42.754Z,20.00
2023-01-25T00:31:42.369Z,19.60
2023-01-25T00:32:42.493Z,19.60
2023-01-25T00:33:42.292Z,19.40
2023-01-25T00:34:42.255Z,19.90
2023-01-25T00:35:42.244Z,20.00
2023-01-25T00:36:42.246Z,18.80
2023-01-25T00:37:42.255Z,19.00
2023-01-25T00:38:42.261Z,19.50
2023-01-25T00:39:42.199Z,19.20
2023-01-25T00:40:42.326Z,18.10
2023-01-25T00:41:42.212Z,18.70
2023-01-25T00:42:42.196Z,17.60
2023-01-25T00:43:42.205Z,17.80
2023-01-25T00:44:42.174Z,17.90
2023-01-25T00:45:42.142Z,17.70
2023-01-25T00:46:42.144Z,18.40
2023-01-25T00:47:42.122Z,18.70
2023-01-25T00:48:42.100Z,18.90
2023-01-25T00:49:42.117Z,17.80
2023-01-25T00:50:42.079Z,18.70
2023-01-25T00:51:42.115Z,19.20
2023-01-25T00:52:42.060Z,19.00
2023-01-25T00:53:42.055Z,18.90
2023-01-25T00:54:42.037Z,19.20
2023-01-25T00:55:42.046Z,19.40
2023-01-25T00:56:42.050Z,19.20
2023-01-25T00:57:41.999Z,20.10
2023-01-25T00:58:41.988Z,19.50
2023-01-25T00:59:42.026Z,19.60
2023-01-25T01:00:41.975Z,19.00
2023-01-25T01:01:41.972Z,19.70
2023-01-25T01:02:41.953Z,19.50
2023-01-25T01:03:41.940Z,20.00
2023-01-25T01:04:42.017Z,19.80
2023-01-25T01:05:41.951Z,20.30
2023-01-25T01:06:41.939Z,19.20
2023-01-25T01:07:41.892Z,19.70
2023-01-25T01:08:41.930Z,19.90
2023-01-25T01:09:41.871Z,19.40
2023-01-25T01:10:41.865Z,20.20
2023-01-25T01:11:41.879Z,20.10
2023-01-25T01:12:41.873Z,19.80
2023-01-25T01:13:41.818Z,20.30
2023-01-25T01:14:41.827Z,19.90
2023-01-25T01:15:41.798Z,20.40
2023-01-25T01:16:41.915Z,20.90
2023-01-25T01:17:41.787Z,20.40
2023-01-25T01:18:41.796Z,20.20
2023-01-25T01:19:41.802Z,21.20
2023-01-25T01:20:41.808Z,20.40
2023-01-25T01:21:41.733Z,19.90
2023-01-25T01:22:41.721Z,20.30
2023-01-25T01:23:41.722Z,20.00
2023-01-25T01:24:41.694Z,19.90
2023-01-25T01:25:41.739Z,21.20
2023-01-25T01:26:41.701Z,20.20
2023-01-25T01:27:41.695Z,20.40
2023-01-25T01:28:41.675Z,20.30
2023-01-25T01:29:41.684Z,20.60
2023-01-25T01:30:41.636Z,20.20
2023-01-25T01:31:41.708Z,20.20
2023-01-25T01:32:41.711Z,19.30
2023-01-25T01:33:41.609Z,19.40
2023-01-25T01:34:41.594Z,19.40
2023-01-25T01:35:41.592Z,19.00
2023-01-25T01:36:41.558Z,18.70
2023-01-25T01:37:41.574Z,18.50
2023-01-25T01:38:41.561Z,19.40
2023-01-25T01:39:41.540Z,18.80
2023-01-25T01:40:41.532Z,19.40
2023-01-25T01:41:41.536Z,19.10
2023-01-25T01:42:41.510Z,18.20
2023-01-25T01:43:41.481Z,19.00
2023-01-25T01:44:41.497Z,19.30
2023-01-25T01:45:41.511Z,19.00
2023-01-25T01:46:41.461Z,19.10
2023-01-25T01:47:41.465Z,19.00
2023-01-25T01:48:41.425Z,18.90
2023-01-25T01:49:41.436Z,19.10
2023-01-25T01:50:41.448Z,20.00
2023-01-25T01:51:41.406Z,19.00
2023-01-25T01:52:41.403Z,19.50
2023-01-25T01:53:41.406Z,19.20
2023-01-25T01:54:41.394Z,18.70
2023-01-25T01:55:41.349Z,19.50
2023-01-25T01:56:41.377Z,18.60
2023-01-25T01:57:41.340Z,19.20
2023-01-25T01:58:41.344Z,19.00
2023-01-25T01:59:41.305Z,19.60
2023-01-25T02:00:41.426Z,19.60
2023-01-25T02:01:41.325Z,19.20
2023-01-25T02:02:41.351Z,19.60
2023-01-25T02:03:41.287Z,19.60
2023-01-25T02:04:41.245Z,20.40
2023-01-25T02:05:41.239Z,20.20
2023-01-25T02:06:41.223Z,19.80
2023-01-25T02:07:41.236Z,19.40
2023-01-25T02:08:41.236Z,19.00
2023-01-25T02:09:41.209Z,20.20
2023-01-25T02:10:41.178Z,19.80
2023-01-25T02:11:41.174Z,19.70
2023-01-25T02:12:41.158Z,19.90
2023-01-25T02:13:41.179Z,20.00
2023-01-25T02:14:41.169Z,20.00
2023-01-25T02:15:41.171Z,20.50
2023-01-25T02:16:41.171Z,20.80
2023-01-25T02:17:41.106Z,22.20
2023-01-25T02:18:41.095Z,22.00
2023-01-25T02:19:41.117Z,21.70
2023-01-25T02:20:41.084Z,22.30
2023-01-25T02:21:41.062Z,22.80
2023-01-25T02:22:41.073Z,21.90
2023-01-25T02:23:41.038Z,21.70
2023-01-25T02:24:41.039Z,22.40
2023-01-25T02:25:41.027Z,21.40
2023-01-25T02:26:41.019Z,21.40
2023-01-25T02:27:40.990Z,21.60
2023-01-25T02:28:40.994Z,21.60
2023-01-25T02:29:40.970Z,21.60
2023-01-25T02:30:41.026Z,21.00
2023-01-25T02:31:41.004Z,22.30
2023-01-25T02:32:40.949Z,21.50
2023-01-25T02:33:40.977Z,21.10
2023-01-25T02:34:40.910Z,21.50
2023-01-25T02:35:40.901Z,21.10
2023-01-25T02:36:40.895Z,22.10
2023-01-25T02:37:40.892Z,20.60
2023-01-25T02:38:40.905Z,20.50
2023-01-25T02:39:40.873Z,20.60
2023-01-25T02:40:40.848Z,20.70
2023-01-25T02:41:40.876Z,21.10
2023-01-25T02:42:40.823Z,21.10
2023-01-25T02:43:40.831Z,20.90
2023-01-25T02:44:40.863Z,20.90
2023-01-25T02:45:40.789Z,20.90
2023-01-25T02:46:40.784Z,20.20
2023-01-25T02:47:40.782Z,20.10
2023-01-25T02:48:40.783Z,20.90
2023-01-25T02:49:40.761Z,26.40
2023-01-25T02:50:40.761Z,26.00
2023-01-25T02:51:40.774Z,26.70
2023-01-25T02:52:40.709Z,24.80
2023-01-25T02:53:40.699Z,27.20
2023-01-25T02:54:40.704Z,24.00
2023-01-25T02:55:40.697Z,23.10
2023-01-25T02:56:40.689Z,22.40
2023-01-25T02:57:40.685Z,24.20
2023-01-25T02:58:40.659Z,27.20
2023-01-25T02:59:40.663Z,23.90
2023-01-25T03:00:40.646Z,27.80
2023-01-25T03:01:40.655Z,34.30
2023-01-25T03:02:40.612Z,38.80
2023-01-25T03:03:40.601Z,28.60
2023-01-25T03:04:40.613Z,25.40
2023-01-25T03:05:40.596Z,20.50
2023-01-25T03:06:40.573Z,19.90
2023-01-25T03:07:40.574Z,20.10
2023-01-25T03:08:40.529Z,22.80
2023-01-25T03:09:40.550Z,20.40
2023-01-25T03:10:40.532Z,20.90
2023-01-25T03:11:40.509Z,19.50
2023-01-25T03:12:40.520Z,18.80
2023-01-25T03:13:40.473Z,19.00
2023-01-25T03:14:40.461Z,19.90
2023-01-25T03:15:40.471Z,18.80
2023-01-25T03:16:40.441Z,19.30
2023-01-25T03:17:40.452Z,19.00
2023-01-25T03:18:40.416Z,18.70
2023-01-25T03:19:40.426Z,18.30
2023-01-25T03:20:40.426Z,18.10
2023-01-25T03:21:40.479Z,19.60
2023-01-25T03:22:40.380Z,20.20
2023-01-25T03:23:40.373Z,20.20
2023-01-25T03:24:40.360Z,20.10
2023-01-25T03:25:40.355Z,19.50
2023-01-25T03:26:40.348Z,20.50
2023-01-25T03:27:40.355Z,19.10
2023-01-25T03:28:40.315Z,18.90
2023-01-25T03:29:40.324Z,19.10
2023-01-25T03:30:40.282Z,19.50
2023-01-25T03:31:40.450Z,20.60
2023-01-25T03:32:40.278Z,20.20
2023-01-25T03:33:40.302Z,19.30
2023-01-25T03:34:40.252Z,20.20
2023-01-25T03:35:40.234Z,19.60
2023-01-25T03:36:40.233Z,19.90
2023-01-25T03:37:40.237Z,19.80
2023-01-25T03:38:40.203Z,20.20
2023-01-25T03:39:40.205Z,20.60
2023-01-25T03:40:40.182Z,20.90
2023-01-25T03:41:40.167Z,20.40
2023-01-25T03:42:40.148Z,20.30
2023-01-25T03:43:40.161Z,20.70
2023-01-25T03:44:40.156Z,19.70
2023-01-25T03:45:40.143Z,19.50
2023-01-25T03:46:40.178Z,20.00
2023-01-25T03:47:40.100Z,19.80
2023-01-25T03:48:40.083Z,19.60
2023-01-25T03:49:40.100Z,19.80
2023-01-25T03:50:40.058Z,19.60
2023-01-25T03:51:40.074Z,19.60
2023-01-25T03:52:40.056Z,19.40
2023-01-25T03:53:40.029Z,18.70
2023-01-25T03:54:40.021Z,20.10
2023-01-25T03:55:40.296Z,19.60
2023-01-25T03:56:39.995Z,19.20
2023-01-25T03:57:40.011Z,20.10
2023-01-25T03:58:39.972Z,19.30
2023-01-25T03:59:39.962Z,19.40
2023-01-25T04:00:39.984Z,19.40
2023-01-25T04:01:39.979Z,19.40
2023-01-25T04:02:40.046Z,19.10
2023-01-25T04:03:39.946Z,18.90
2023-01-25T04:04:39.903Z,19.50
2023-01-25T04:05:39.894Z,19.20
2023-01-25T04:06:39.904Z,19.50
2023-01-25T04:07:39.873Z,19.90
2023-01-25T04:08:48.833Z,19.90
2023-01-25T04:09:39.880Z,20.40
2023-01-25T04:10:39.879Z,20.60
2023-01-25T04:11:39.825Z,19.70
2023-01-25T04:12:39.820Z,20.00
2023-01-25T04:13:39.860Z,20.60
2023-01-25T04:14:44.751Z,19.90
2023-01-25T04:15:40.785Z,20.70
2023-01-25T04:16:39.859Z,19.80
2023-01-25T04:17:39.773Z,20.60
2023-01-25T04:18:39.760Z,20.00
2023-01-25T04:19:39.757Z,19.60
2023-01-25T04:20:41.111Z,19.60
2023-01-25T04:21:39.716Z,19.80
2023-01-25T04:22:39.699Z,20.10
2023-01-25T04:23:39.690Z,20.00
2023-01-25T04:24:39.722Z,20.20
2023-01-25T04:25:39.703Z,20.70
2023-01-25T04:26:39.674Z,20.20
2023-01-25T04:27:39.686Z,20.10
2023-01-25T04:28:39.636Z,20.40
2023-01-25T04:29:41.722Z,20.30
2023-01-25T04:30:39.648Z,20.50
2023-01-25T04:31:39.707Z,20.80
2023-01-25T04:32:39.711Z,21.10
2023-01-25T04:33:39.580Z,20.20
2023-01-25T04:34:39.588Z,20.10
2023-01-25T04:35:39.569Z,20.10
2023-01-25T04:36:39.557Z,20.80
2023-01-25T04:37:39.556Z,20.50
2023-01-25T04:38:39.524Z,21.30
2023-01-25T04:39:39.537Z,20.60
2023-01-25T04:40:39.552Z,20.80
2023-01-25T04:41:39.505Z,21.80
2023-01-25T04:42:39.503Z,21.30
2023-01-25T04:43:39.486Z,21.30
2023-01-25T04:44:39.458Z,21.10
2023-01-25T04:45:39.497Z,21.30
2023-01-25T04:46:39.470Z,21.50
2023-01-25T04:47:39.428Z,21.30
2023-01-25T04:48:39.456Z,21.70
2023-01-25T04:49:39.421Z,21.40
2023-01-25T04:50:39.451Z,22.00
2023-01-25T04:51:39.397Z,21.10
2023-01-25T04:52:39.373Z,21.10
2023-01-25T04:53:39.356Z,21.70
2023-01-25T04:54:39.376Z,21.60
2023-01-25T04:55:39.371Z,21.60
2023-01-25T04:56:39.341Z,21.80
2023-01-25T04:57:39.333Z,21.50
2023-01-25T04:58:39.312Z,21.80
2023-01-25T04:59:39.302Z,21.60
2023-01-25T05:00:39.307Z,21.50
2023-01-25T05:01:39.339Z,21.40
2023-01-25T05:02:39.336Z,21.60
2023-01-25T05:03:39.247Z,21.50
2023-01-25T05:04:39.274Z,21.70
2023-01-25T05:05:39.233Z,20.30
2023-01-25T05:06:39.254Z,20.30
2023-01-25T05:07:39.200Z,19.50
2023-01-25T05:08:39.212Z,19.20
2023-01-25T05:09:39.180Z,18.50
2023-01-25T05:10:39.199Z,19.40
2023-01-25T05:11:39.201Z,19.20
2023-01-25T05:12:39.198Z,19.10
2023-01-25T05:13:39.136Z,19.70
2023-01-25T05:14:39.126Z,20.10
2023-01-25T05:15:39.122Z,19.00
2023-01-25T05:16:39.167Z,20.30
2023-01-25T05:17:39.099Z,19.50
2023-01-25T05:18:48.544Z,19.50
2023-01-25T05:19:40.071Z,20.00
2023-01-25T05:20:39.058Z,20.50
2023-01-25T05:21:39.059Z,21.00
2023-01-25T05:22:39.091Z,20.90
2023-01-25T05:23:39.047Z,21.00
2023-01-25T05:24:39.055Z,19.80
2023-01-25T05:25:39.002Z,20.50
2023-01-25T05:26:38.990Z,21.10
2023-01-25T05:27:38.996Z,21.00
2023-01-25T05:28:39.021Z,21.50
2023-01-25T05:29:39.001Z,21.60
2023-01-25T05:30:39.019Z,21.80
2023-01-25T05:31:38.995Z,20.70
2023-01-25T05:32:38.930Z,21.00
2023-01-25T05:33:38.954Z,20.90
2023-01-25T05:34:38.920Z,22.10
2023-01-25T05:35:38.893Z,21.80
2023-01-25T05:36:38.927Z,20.50
2023-01-25T05:37:38.865Z,20.40
2023-01-25T05:38:38.888Z,21.20
2023-01-25T05:39:38.887Z,20.50
2023-01-25T05:40:38.850Z,20.90
2023-01-25T05:41:38.883Z,20.70
2023-01-25T05:42:38.816Z,21.10
2023-01-25T05:43:38.803Z,20.80
2023-01-25T05:44:38.849Z,21.10
2023-01-25T05:45:38.890Z,33.00
2023-01-25T05:46:38.789Z,26.40
2023-01-25T05:47:38.791Z,22.80
2023-01-25T05:48:38.746Z,22.10
2023-01-25T05:49:38.741Z,22.30
2023-01-25T05:50:38.796Z,21.70
2023-01-25T05:51:38.726Z,21.70
2023-01-25T05:52:38.755Z,20.30
2023-01-25T05:53:38.697Z,20.70
2023-01-25T05:54:38.683Z,19.20
2023-01-25T05:55:38.676Z,20.20
2023-01-25T05:56:38.659Z,19.50
2023-01-25T05:57:38.663Z,19.90
2023-01-25T05:58:38.676Z,20.60
2023-01-25T05:59:38.645Z,21.50
2023-01-25T06:00:38.630Z,20.80
2023-01-25T06:01:38.620Z,19.60
2023-01-25T06:02:38.683Z,21.10
2023-01-25T06:03:38.648Z,19.70
2023-01-25T06:04:38.603Z,20.80
2023-01-25T06:05:38.557Z,21.00
2023-01-25T06:06:38.545Z,19.20
2023-01-25T06:07:39.350Z,20.10
2023-01-25T06:08:38.565Z,19.70
2023-01-25T06:09:38.529Z,19.10
2023-01-25T06:10:38.508Z,19.00
2023-01-25T06:11:38.488Z,19.10
2023-01-25T06:12:38.483Z,19.40
2023-01-25T06:13:38.499Z,19.00
2023-01-25T06:14:38.478Z,19.10
2023-01-25T06:15:38.529Z,18.70
2023-01-25T06:16:38.459Z,19.50
2023-01-25T06:17:38.444Z,18.70
2023-01-25T06:18:38.428Z,19.60
2023-01-25T06:19:38.407Z,19.30
2023-01-25T06:20:38.418Z,19.30
2023-01-25T06:21:38.415Z,19.70
2023-01-25T06:22:38.386Z,19.40
2023-01-25T06:23:38.384Z,19.60
2023-01-25T06:24:38.378Z,19.90
2023-01-25T06:25:38.358Z,20.50
2023-01-25T06:26:38.349Z,20.20
2023-01-25T06:27:38.308Z,19.80
2023-01-25T06:28:38.309Z,20.40
2023-01-25T06:29:38.324Z,21.60
2023-01-25T06:30:38.325Z,22.00
2023-01-25T06:31:38.380Z,21.80
2023-01-25T06:32:38.269Z,21.40
2023-01-25T06:33:38.239Z,20.10
2023-01-25T06:34:38.252Z,20.60
2023-01-25T06:35:38.237Z,21.90
2023-01-25T06:36:38.247Z,19.50
2023-01-25T06:37:38.242Z,18.80
2023-01-25T06:38:38.184Z,18.30
2023-01-25T06:39:38.175Z,18.20
2023-01-25T06:40:38.179Z,17.20
2023-01-25T06:41:38.181Z,17.20
2023-01-25T06:42:38.146Z,17.40
2023-01-25T06:43:38.181Z,17.20
2023-01-25T06:44:38.118Z,18.00
2023-01-25T06:45:38.118Z,17.10
2023-01-25T06:46:38.168Z,16.30
2023-01-25T06:47:38.085Z,17.00
2023-01-25T06:48:38.127Z,17.10
2023-01-25T06:49:38.100Z,16.10
2023-01-25T06:50:38.121Z,16.10
2023-01-25T06:51:38.049Z,16.40
2023-01-25T06:52:38.045Z,16.30
2023-01-25T06:53:38.019Z,16.10
2023-01-25T06:54:38.061Z,16.50
2023-01-25T06:55:38.020Z,16.30
2023-01-25T06:56:37.995Z,17.80
2023-01-25T06:57:37.970Z,17.90
2023-01-25T06:58:38.003Z,17.60
2023-01-25T06:59:37.959Z,17.90
2023-01-25T07:00:37.965Z,19.60
2023-01-25T07:01:37.970Z,18.90
2023-01-25T07:02:37.951Z,19.60
2023-01-25T07:03:37.905Z,17.60
2023-01-25T07:04:37.997Z,16.60
2023-01-25T07:05:37.900Z,17.00
2023-01-25T07:06:37.929Z,17.30
2023-01-25T07:07:37.876Z,16.10
2023-01-25T07:08:37.874Z,16.50
2023-01-25T07:09:37.845Z,17.00
2023-01-25T07:10:37.880Z,16.60
2023-01-25T07:11:37.830Z,17.20
2023-01-25T07:12:37.804Z,17.60
2023-01-25T07:13:37.797Z,17.40
2023-01-25T07:14:37.784Z,17.30
2023-01-25T07:15:37.784Z,17.40
2023-01-25T07:16:37.813Z,18.10
2023-01-25T07:17:37.760Z,18.30
2023-01-25T07:18:37.739Z,18.80
2023-01-25T07:19:37.724Z,18.90
2023-01-25T07:20:37.743Z,18.40
2023-01-25T07:21:37.739Z,19.90
2023-01-25T07:22:37.717Z,20.00
2023-01-25T07:23:37.701Z,20.40
2023-01-25T07:24:37.668Z,20.10
2023-01-25T07:25:37.660Z,19.50
2023-01-25T07:26:37.656Z,19.10
2023-01-25T07:27:37.666Z,19.90
2023-01-25T07:28:37.671Z,20.50
2023-01-25T07:29:37.614Z,19.00
2023-01-25T07:30:37.608Z,19.20
2023-01-25T07:31:37.623Z,18.50
2023-01-25T07:32:37.613Z,18.70
2023-01-25T07:33:37.575Z,18.40
2023-01-25T07:34:37.588Z,18.50
2023-01-25T07:35:37.547Z,17.20
2023-01-25T07:36:37.556Z,18.40
2023-01-25T07:37:37.566Z,17.90
2023-01-25T07:38:37.546Z,17.70
2023-01-25T07:39:37.513Z,19.10
2023-01-25T07:40:37.525Z,17.70
2023-01-25T07:41:37.477Z,18.40
2023-01-25T07:42:37.468Z,19.50
2023-01-25T07:43:37.878Z,20.10
2023-01-25T07:44:37.481Z,20.10
2023-01-25T07:45:37.444Z,19.10
2023-01-25T07:46:37.463Z,19.90
2023-01-25T07:47:38.039Z,18.60
2023-01-25T07:48:37.401Z,18.50
2023-01-25T07:49:37.431Z,18.50
2023-01-25T07:50:37.388Z,20.30
2023-01-25T07:51:37.405Z,19.50
2023-01-25T07:52:37.402Z,19.90
2023-01-25T07:53:37.406Z,18.90
2023-01-25T07:54:37.336Z,20.10
2023-01-25T07:55:37.353Z,18.70
2023-01-25T07:56:37.324Z,18.80
2023-01-25T07:57:37.320Z,18.50
2023-01-25T07:58:37.337Z,18.60
2023-01-25T07:59:37.308Z,19.00
2023-01-25T08:00:37.273Z,18.40
2023-01-25T08:01:37.531Z,18.60
2023-01-25T08:02:37.261Z,17.90
2023-01-25T08:03:37.239Z,18.90
2023-01-25T08:04:37.266Z,19.20
2023-01-25T08:05:39.382Z,19.00
2023-01-25T08:06:37.208Z,18.30
2023-01-25T08:07:37.191Z,19.30
2023-01-25T08:08:37.217Z,17.60
2023-01-25T08:09:37.167Z,17.40
2023-01-25T08:10:37.181Z,17.50
2023-01-25T08:11:37.177Z,17.50
2023-01-25T08:12:37.145Z,17.50
2023-01-25T08:13:37.129Z,18.40
2023-01-25T08:14:37.124Z,18.80
2023-01-25T08:15:37.143Z,18.00
2023-01-25T08:16:37.163Z,18.50
2023-01-25T08:17:37.119Z,18.70
2023-01-25T08:18:37.091Z,18.80
2023-01-25T08:19:37.072Z,18.80
2023-01-25T08:20:37.075Z,19.10
2023-01-25T08:21:37.073Z,19.60
2023-01-25T08:22:37.847Z,18.80
2023-01-25T08:23:37.017Z,19.90
2023-01-25T08:24:37.129Z,19.50
2023-01-25T08:25:37.031Z,18.10
2023-01-25T08:26:36.979Z,18.50
2023-01-25T08:27:37.025Z,18.30
2023-01-25T08:28:36.958Z,18.50
2023-01-25T08:29:36.953Z,18.00
2023-01-25T08:30:41.224Z,18.60
2023-01-25T08:31:37.975Z,17.70
2023-01-25T08:32:38.010Z,18.10
2023-01-25T08:33:36.924Z,18.30
2023-01-25T08:34:36.887Z,18.80
2023-01-25T08:35:36.894Z,18.30
2023-01-25T08:36:36.929Z,18.60
2023-01-25T08:37:36.876Z,18.30
2023-01-25T08:38:36.854Z,18.10
2023-01-25T08:39:36.829Z,17.60
2023-01-25T08:40:38.582Z,18.00
2023-01-25T08:41:36.809Z,17.30
2023-01-25T08:42:36.869Z,17.00
2023-01-25T08:43:36.788Z,15.50
2023-01-25T08:53:26.167Z,18.30
2023-01-25T08:54:26.101Z,18.70
2023-01-25T08:55:26.138Z,17.60
2023-01-25T08:56:26.177Z,17.90
2023-01-25T08:57:26.093Z,17.70
2023-01-25T08:58:26.054Z,17.30
2023-01-25T08:59:26.065Z,18.30
2023-01-25T09:00:26.067Z,17.90
2023-01-25T09:01:26.033Z,19.20
2023-01-25T09:02:26.046Z,18.60
2023-01-25T09:03:26.033Z,18.80
2023-01-25T09:04:26.000Z,18.70
2023-01-25T09:05:26.007Z,19.30
2023-01-25T09:06:26.005Z,18.70
2023-01-25T09:07:25.965Z,19.50
2023-01-25T09:08:25.943Z,20.20
2023-01-25T09:09:25.926Z,19.00
2023-01-25T09:10:25.961Z,19.70
2023-01-25T09:11:25.912Z,19.70
2023-01-25T09:12:25.975Z,20.20
2023-01-25T09:13:25.903Z,19.60
2023-01-25T09:14:25.883Z,21.20
2023-01-25T09:15:25.876Z,20.40
2023-01-25T09:16:25.879Z,21.40
2023-01-25T09:17:25.837Z,21.10
2023-01-25T09:18:25.893Z,21.70
2023-01-25T09:19:25.856Z,21.70
2023-01-25T09:20:25.855Z,20.70
2023-01-25T09:21:25.807Z,21.00
2023-01-25T09:22:25.810Z,22.40
2023-01-25T09:23:25.825Z,21.40
2023-01-25T09:24:25.791Z,22.00
2023-01-25T09:25:25.764Z,22.20
2023-01-25T09:26:25.739Z,22.30
2023-01-25T09:27:25.784Z,22.10
2023-01-25T09:28:25.786Z,22.50
2023-01-25T09:29:25.761Z,22.10
2023-01-25T09:30:37.232Z,22.20
2023-01-25T09:31:27.446Z,21.80
2023-01-25T09:32:25.792Z,22.20
2023-01-25T09:33:25.683Z,22.60
2023-01-25T09:34:25.950Z,20.30
2023-01-25T09:35:25.639Z,20.70
2023-01-25T09:36:25.628Z,20.30
2023-01-25T09:37:25.642Z,19.80
2023-01-25T09:38:25.651Z,19.70
2023-01-25T09:39:25.637Z,20.20
2023-01-25T09:40:25.584Z,20.00
2023-01-25T09:41:25.572Z,19.80
2023-01-25T09:42:25.584Z,20.10
2023-01-25T09:43:25.564Z,19.70
2023-01-25T09:44:25.582Z,19.50
2023-01-25T09:45:25.536Z,19.70
2023-01-25T09:46:25.689Z,20.10
2023-01-25T09:47:25.537Z,18.80
2023-01-25T09:48:25.515Z,18.30
2023-01-25T09:49:25.542Z,18.30
2023-01-25T09:50:25.505Z,17.70
2023-01-25T09:51:25.460Z,18.70
2023-01-25T09:52:25.448Z,17.60
2023-01-25T09:53:25.443Z,17.10
2023-01-25T09:54:25.427Z,17.80
2023-01-25T09:55:25.471Z,17.40
2023-01-25T09:56:25.418Z,17.50
2023-01-25T09:57:25.397Z,18.10
2023-01-25T09:58:25.410Z,17.80
2023-01-25T09:59:25.380Z,17.80
2023-01-25T10:00:25.410Z,17.60
2023-01-25T10:01:37.695Z,18.00
2023-01-25T10:02:26.503Z,17.70
2023-01-25T10:03:25.383Z,17.50
2023-01-25T10:04:25.315Z,18.20
2023-01-25T10:05:25.319Z,18.30
2023-01-25T10:06:25.305Z,17.30
2023-01-25T10:07:25.327Z,17.20
2023-01-25T10:08:25.274Z,16.90
2023-01-25T10:09:25.281Z,17.10
2023-01-25T10:10:25.248Z,17.10
2023-01-25T10:11:25.246Z,17.50
2023-01-25T10:12:25.233Z,17.30
2023-01-25T10:13:25.274Z,17.00
2023-01-25T10:14:25.262Z,17.60
2023-01-25T10:15:25.220Z,16.60
2023-01-25T10:16:26.658Z,16.90
2023-01-25T10:17:25.233Z,16.30
2023-01-25T10:18:25.200Z,16.60
2023-01-25T10:19:25.179Z,16.30
2023-01-25T10:20:25.143Z,17.30
2023-01-25T10:21:25.158Z,16.80
2023-01-25T10:22:25.130Z,16.60
2023-01-25T10:23:25.115Z,17.30
2023-01-25T10:24:25.130Z,17.30
2023-01-25T10:25:25.122Z,17.90
2023-01-25T10:26:25.070Z,17.00
2023-01-25T10:27:25.083Z,17.30
2023-01-25T10:28:25.051Z,17.50
2023-01-25T10:29:25.054Z,17.10
2023-01-25T10:30:25.079Z,16.90
2023-01-25T10:31:25.124Z,16.80
2023-01-25T10:32:25.029Z,16.70
2023-01-25T10:33:25.000Z,16.40
2023-01-25T10:34:24.993Z,16.90
2023-01-25T10:35:34.726Z,16.60
2023-01-25T10:36:26.011Z,16.90
2023-01-25T10:37:24.948Z,17.60
2023-01-25T10:38:24.946Z,17.60
2023-01-25T10:39:24.945Z,17.70
2023-01-25T10:40:24.951Z,18.50
2023-01-25T10:41:24.934Z,18.00
2023-01-25T10:42:24.908Z,20.20
2023-01-25T10:43:24.886Z,19.60
2023-01-25T10:44:24.920Z,18.30
2023-01-25T10:45:24.896Z,19.70
2023-01-25T10:46:24.913Z,19.90
2023-01-25T10:47:24.880Z,19.70
2023-01-25T10:48:24.867Z,18.10
2023-01-25T10:49:24.831Z,18.60
2023-01-25T10:50:24.810Z,19.00
2023-01-25T10:51:24.793Z,18.50
2023-01-25T10:52:24.835Z,18.90
2023-01-25T10:53:24.773Z,18.90
2023-01-25T10:54:24.772Z,19.10
2023-01-25T10:55:24.748Z,20.00
2023-01-25T10:56:24.734Z,19.10
2023-01-25T10:57:24.740Z,18.60
2023-01-25T10:58:24.743Z,19.30
2023-01-25T10:59:24.713Z,19.30
2023-01-25T11:00:24.710Z,19.20
2023-01-25T11:01:24.729Z,19.40
2023-01-25T11:02:24.764Z,19.10
2023-01-25T11:03:24.678Z,19.30
2023-01-25T11:04:24.667Z,19.30
2023-01-25T11:05:24.635Z,20.80
2023-01-25T11:06:24.634Z,21.50
2023-01-25T11:07:24.623Z,21.30
2023-01-25T11:08:24.654Z,21.40
2023-01-25T11:09:24.609Z,20.90
2023-01-25T11:10:24.577Z,20.20
2023-01-25T11:11:24.567Z,20.10
2023-01-25T11:12:24.566Z,19.90
2023-01-25T11:13:24.579Z,20.20
2023-01-25T11:14:24.555Z,21.90
2023-01-25T11:15:24.546Z,21.30
2023-01-25T11:16:24.623Z,21.70
2023-01-25T11:17:24.503Z,21.40
2023-01-25T11:18:24.507Z,21.40
2023-01-25T11:19:24.500Z,22.90
2023-01-25T11:20:24.525Z,23.00
2023-01-25T11:21:24.480Z,23.50
2023-01-25T11:22:24.489Z,25.80
2023-01-25T11:23:24.437Z,27.00
2023-01-25T11:24:24.502Z,27.50
2023-01-25T11:25:24.415Z,24.00
2023-01-25T11:26:24.936Z,23.40
2023-01-25T11:27:24.429Z,22.60
2023-01-25T11:28:24.377Z,22.60
2023-01-25T11:29:26.248Z,22.10
2023-01-25T11:30:24.379Z,21.80
2023-01-25T11:31:24.505Z,22.10
2023-01-25T11:32:24.365Z,22.30
2023-01-25T11:33:24.350Z,22.80
2023-01-25T11:34:24.314Z,23.70
2023-01-25T11:35:24.318Z,22.40
2023-01-25T11:36:24.328Z,22.40
2023-01-25T11:37:24.299Z,21.70
2023-01-25T11:38:24.316Z,21.30
2023-01-25T11:39:24.257Z,20.00
2023-01-25T11:40:24.246Z,19.30
2023-01-25T11:41:24.243Z,19.50
2023-01-25T11:42:24.256Z,19.20
2023-01-25T11:43:24.242Z,18.60
2023-01-25T11:44:24.241Z,18.60
2023-01-25T11:45:24.194Z,20.10
2023-01-25T11:46:24.212Z,20.50
2023-01-25T11:47:24.167Z,20.60
2023-01-25T11:48:24.183Z,20.80
2023-01-25T11:49:24.178Z,21.20
2023-01-25T11:50:24.134Z,20.80
2023-01-25T11:51:24.124Z,19.90
2023-01-25T11:52:24.141Z,19.50
2023-01-25T11:53:24.143Z,18.90
2023-01-25T11:54:24.117Z,18.80
2023-01-25T11:55:24.093Z,18.60
2023-01-25T11:56:24.070Z,19.20
2023-01-25T11:57:24.056Z,19.40
2023-01-25T11:58:24.053Z,18.70
2023-01-25T11:59:24.088Z,19.70
2023-01-25T12:00:24.058Z,19.10
2023-01-25T12:01:24.011Z,19.30
2023-01-25T12:02:24.073Z,18.30
2023-01-25T12:03:23.990Z,18.00
2023-01-25T12:04:24.007Z,17.40
2023-01-25T12:05:24.022Z,18.50
2023-01-25T12:06:24.012Z,17.80
2023-01-25T12:07:23.948Z,17.70
2023-01-25T12:08:24.057Z,17.40
2023-01-25T12:09:23.924Z,16.80
2023-01-25T12:10:23.955Z,17.50
2023-01-25T12:11:23.931Z,17.80
2023-01-25T12:12:23.920Z,17.60
2023-01-25T12:13:23.879Z,18.10
2023-01-25T12:14:23.864Z,17.40
2023-01-25T12:15:23.866Z,17.80
2023-01-25T12:16:23.863Z,17.50
2023-01-25T12:17:23.899Z,17.50
2023-01-25T12:18:23.819Z,17.80
2023-01-25T12:19:23.812Z,18.50
2023-01-25T12:20:23.798Z,17.10
2023-01-25T12:21:31.289Z,17.80
2023-01-25T12:22:24.803Z,17.80
2023-01-25T12:23:23.801Z,18.00
2023-01-25T12:24:23.886Z,17.70
2023-01-25T12:25:23.745Z,17.40
2023-01-25T12:26:23.734Z,18.00
2023-01-25T12:27:25.931Z,18.30
2023-01-25T12:28:23.753Z,18.60
2023-01-25T12:29:23.752Z,18.30
2023-01-25T12:30:23.696Z,18.70
2023-01-25T12:31:23.790Z,19.40
2023-01-25T12:32:23.721Z,19.50
2023-01-25T12:33:23.677Z,19.60
2023-01-25T12:34:23.678Z,19.40
2023-01-25T12:35:23.660Z,20.30
2023-01-25T12:36:23.620Z,19.30
2023-01-25T12:37:23.611Z,19.30
2023-01-25T12:38:23.631Z,19.00
2023-01-25T12:39:23.642Z,18.40
2023-01-25T12:40:23.592Z,19.30
2023-01-25T12:41:23.637Z,19.70
2023-01-25T12:42:23.568Z,19.30
2023-01-25T12:43:23.545Z,19.10
2023-01-25T12:44:23.553Z,19.90
2023-01-25T12:45:23.558Z,20.10
2023-01-25T12:46:23.556Z,20.70
2023-01-25T12:47:23.550Z,19.90
2023-01-25T12:48:23.496Z,20.60
2023-01-25T12:49:23.529Z,21.80
2023-01-25T12:50:23.512Z,22.40
2023-01-25T12:51:23.488Z,22.30
2023-01-25T12:52:23.488Z,22.00
2023-01-25T12:53:23.445Z,20.40
2023-01-25T12:54:23.426Z,19.10
2023-01-25T12:55:23.439Z,19.50
2023-01-25T12:56:23.451Z,20.00
2023-01-25T12:57:23.424Z,19.80
2023-01-25T12:58:32.900Z,21.40
2023-01-25T12:59:24.382Z,20.70
2023-01-25T13:00:23.427Z,21.20
2023-01-25T13:01:23.420Z,21.10